ADDS METAR Data INFO
IDs: Format: Raw Decoded Include TAF

Data at: 0143 UTC 18 Oct 2017

KAMA 180053Z 18011KT 10SM CLR 19/05 A3008 RMK AO2 SLP160 T01940050
KAMA 172353Z 20009KT 10SM CLR 21/03 A3007 RMK AO2 SLP153 T02110033 10283 20211 57007
KAMA 172253Z 20013KT 10SM CLR 26/02 A3007 RMK AO2 SLP149 T02610022
KAMA 172153Z 20015KT 10SM CLR 27/03 A3008 RMK AO2 SLP153 T02720028
KAMA 172053Z 23015G21KT 10SM CLR 28/03 A3009 RMK AO2 SLP151 T02830033 56029
KAMA 172042Z 21014G21KT 10SM CLR 28/04 A3009 RMK AO2 T02830039
KAMA 171953Z AUTO 21011KT 10SM CLR 27/06 A3011 RMK AO2 SLP162 T02720056
KAMA 171853Z 22009KT 10SM CLR 26/05 A3015 RMK AO2 SLP177 T02560050
KAMA 171753Z 23012KT 10SM CLR 23/05 A3018 RMK AO2 SLP189 T02330050 10233 20061 58009
KAMA 171653Z 21014G19KT 10SM CLR 21/04 A3020 RMK AO2 SLP195 T02060044
KAMA 171553Z 24010KT 10SM CLR 18/03 A3021 RMK AO2 SLP203 T01780033
KAMA 171453Z 22011KT 10SM CLR 14/03 A3021 RMK AO2 SLP207 T01440028 53002
KAMA 171353Z 22007KT 10SM CLR 09/03 A3020 RMK AO2 SLP204 T00940033
KAMA 171253Z 23009KT 10SM CLR 07/02 A3020 RMK AO2 SLP205 T00670022
KAMA 171153Z 22012KT 10SM CLR 08/02 A3021 RMK AO2 SLP205 T00780022 10089 20061 55004
KAMA 171053Z 21011KT 10SM CLR 07/03 A3020 RMK AO2 SLP199 T00720028
KAMA 170953Z AUTO 21011KT 10SM CLR 06/02 A3021 RMK AO2 SLP204 T00610022
KAMA 170853Z AUTO 20009KT 10SM CLR 07/02 A3022 RMK AO2 SLP209 T00670022 56013
KAMA 170753Z AUTO 20011KT 10SM CLR 07/02 A3023 RMK AO2 SLP210 T00720022
KAMA 170653Z AUTO 20012KT 10SM CLR 08/02 A3024 RMK AO2 SLP216 T00780022
KAMA 170553Z AUTO 20010KT 10SM CLR 09/02 A3026 RMK AO2 SLP223 T00890022 10178 20083 402170028 58004
KAMA 170453Z AUTO 19010KT 10SM CLR 10/02 A3027 RMK AO2 SLP228 T01000017
KAMA 170353Z 19012KT 10SM CLR 11/02 A3028 RMK AO2 SLP231 T01110017
KAMA 170253Z 18010KT 10SM CLR 12/02 A3028 RMK AO2 SLP233 T01170017 53007
KAMA 170153Z 18012KT 10SM CLR 14/01 A3027 RMK AO2 SLP232 T01440011
KAMA 170053Z 17014KT 10SM CLR 16/01 A3026 RMK AO2 SLP232 T01610011
KAMA 162353Z 18010KT 10SM CLR 18/01 A3026 RMK AO2 SLP229 T01830011 10217 20183 58013
KAMA 162253Z 18013KT 10SM CLR 21/01 A3027 RMK AO2 SLP229 T02110011
KAMA 162153Z 21013KT 10SM CLR 22/01 A3029 RMK AO2 SLP234 T02170011
KAMA 162053Z 20014KT 10SM CLR 21/01 A3030 RMK AO2 SLP238 T02110011 56036
KAMA 161953Z AUTO 19015G19KT 10SM CLR 21/01 A3033 RMK AO2 SLP249 T02110011
KAMA 161853Z 21014G19KT 10SM CLR 20/01 A3038 RMK AO2 SLP263 T02000011
KAMA 161753Z 19013G19KT 10SM CLR 18/01 A3042 RMK AO2 SLP278 T01830011 10189 20028 58015
KAMA 161653Z 20010G17KT 10SM CLR 16/02 A3045 RMK AO2 SLP290 T01610022
KAMA 161553Z 21014KT 10SM CLR 14/01 A3046 RMK AO2 SLP297 T01440011
KAMA 161453Z 21011KT 10SM CLR 12/02 A3046 RMK AO2 SLP302 T01170017 53005
KAMA 161353Z 23006KT 10SM CLR 07/02 A3045 RMK AO2 SLP303 T00720022